Saturday, July 21, 2018, 3:29 AM EDT
Back to Local

KPHD, New Philadelphia Clever Fld

Location: New Philadelphia, OH, United States Lat: 40.467
Local Time: 3:29 AM EDT ( 7:29 GMT) Lon: -81.417
Time Zone: US/Eastern Elev: 895 ft

Show me the last for .
Show Decoded

2018-07-21 02:53 METAR KPHD 210653Z AUTO VRB04KT 10SM FEW019 OVC120 20/17 A2986 RMK AO2 SLP105
                 T02000167 =
2018-07-21 02:00 METAR KPHD 210600Z AUTO 18005KT 10SM SCT019 OVC110 21/17 A2987 RMK AO2 T02060167
                 =
2018-07-21 01:53 METAR KPHD 210553Z AUTO 17006KT 10SM BKN019 BKN025 OVC110 21/17 A2987 RMK AO2
                 SLP107 T02060167 10250 20206 50011 =
2018-07-21 00:53 METAR KPHD 210453Z AUTO 20008G14KT 160V230 10SM BKN022 21/17 A2987 RMK AO2
                 SLP110 T02110172 402830172 =
2018-07-21 00:42 METAR KPHD 210442Z AUTO 19008KT 10SM BKN023 BKN028 22/17 A2988 RMK AO2 T02170172
                 =
2018-07-20 23:53 METAR KPHD 210353Z AUTO 17007G16KT 10SM BKN110 22/17 A2985 RMK AO2 SLP101
                 T02220172 =
2018-07-20 22:53 METAR KPHD 210253Z AUTO 13011G21KT 10SM CLR 23/17 A2983 RMK AO2 SLP095 T02280167
                 58015 =
2018-07-20 21:53 METAR KPHD 210153Z AUTO 14009G17KT 10SM CLR 23/17 A2985 RMK AO2 SLP102 T02330172
                 =
2018-07-20 20:53 METAR KPHD 210053Z AUTO 14008KT 10SM FEW120 23/17 A2987 RMK AO2 SLP108 T02330172
                 =
2018-07-20 19:53 METAR KPHD 202353Z AUTO 18005KT 10SM BKN120 25/19 A2988 RMK AO2 SLP111 T02500189
                 10283 20239 58009 =
2018-07-20 18:53 METAR KPHD 202253Z AUTO 18006KT 10SM CLR 26/18 A2988 RMK AO2 SLP112 T02610183 =
2018-07-20 17:53 METAR KPHD 202153Z AUTO 19005G14KT 10SM CLR 26/18 A2990 RMK AO2 SLP119 T02610183
                 =
2018-07-20 16:53 METAR KPHD 202053Z AUTO 23011G18KT 190V260 10SM SCT036 BKN060 28/18 A2990 RMK
                 AO2 SLP119 T02780183 56017 =
2018-07-20 15:53 METAR KPHD 201953Z AUTO 19005KT 10SM BKN080 BKN095 OVC110 26/19 A2992 RMK AO2
                 SLP124 T02560189 =
2018-07-20 14:53 METAR KPHD 201853Z AUTO 15009G16KT 110V170 10SM SCT120 26/18 A2993 RMK AO2
                 SLP131 T02610183 =
2018-07-20 13:53 METAR KPHD 201753Z AUTO 17004KT 10SM FEW065 FEW085 SCT110 24/18 A2995 RMK AO2
                 SLP138 T02440178 10278 20217 58006 =
2018-07-20 12:53 METAR KPHD 201653Z AUTO 20010G17KT 10SM CLR 26/18 A2999 RMK AO2 LTG DSNT N AND
                 NE SLP148 T02560178 =
2018-07-20 11:53 METAR KPHD 201553Z AUTO 18007G15KT 10SM BKN035 OVC045 27/18 A2998 RMK AO2 LTG
                 DSNT W SLP146 T02670183 =
2018-07-20 10:53 METAR KPHD 201453Z AUTO 16008KT 120V190 10SM SCT060 SCT080 SCT090 27/17 A2997
                 RMK AO2 SLP144 T02720172 58006 =
2018-07-20 09:53 METAR KPHD 201353Z AUTO 17006KT 10SM CLR 26/17 A2998 RMK AO2 SLP146 T02560172 =
2018-07-20 08:53 METAR KPHD 201253Z AUTO 15007KT 10SM CLR 23/17 A2999 RMK AO2 SLP150 T02330167 =
2018-07-20 07:53 METAR KPHD 201153Z AUTO VRB04KT 10SM SCT070 22/16 A2999 RMK AO2 SLP150 T02170161
                 10217 20178 53002 =
2018-07-20 06:53 METAR KPHD 201053Z AUTO 13006KT 10SM SCT070 21/16 A2998 RMK AO2 SLP146 T02060161
                 =
2018-07-20 05:53 METAR KPHD 200953Z AUTO 12005KT 10SM CLR 19/16 A2998 RMK AO2 SLP145 T01890161 =
2018-07-20 04:53 METAR KPHD 200853Z AUTO 13005KT 10SM FEW055 SCT080 20/16 A2999 RMK AO2 SLP147
                 T02000161 56003 =
2018-07-20 03:53 METAR KPHD 200753Z AUTO 13006KT 10SM FEW070 19/16 A2999 RMK AO2 SLP148 T01940161
                 =

Support USWX by starting your Amazon purchase here.